Latest Weather Observations for Giles*

IDW60801

Issued at 12:32 pm WST Saturday 18 April 2015 (issued every 30 minutes, with the page automatically refreshed every 10 minutes)

About weather observations | Map of weather stations | Latest weather observations for WA | Other Formats
Station Details ID: 013017 Name: GILES METEOROLOGICAL OFFICE Lat: -25.03 Lon: 128.30 Height: 598.0 m
Data from the previous 72 hours. | See also: Recent months at Giles*

* Giles observations are collected in the South Australia time zone, which includes daylight saving in the summer period. Therefore, Rain since 9am value is with respect to South Australia local time.

Date/Time
WST
Temp
°C
App
Temp
°C
Dew
Point
Rel
Hum
%
Delta-T
°C
Wind Press
QNH
hPa
Press
MSL
hPa
Rain
since 9 am
mm
Dir
 
Spd
km/h
Gust
km/h
Spd
kts
Gust
kts
18/12:00pm 24.3 20.6 7.9 35 8.9 SSE 17 28 9 15 1020.9 1017.8 0.0
18/11:30am 24.3 20.5 7.4 34 9.1 SSE 17 28 9 15 1021.2 1018.1 0.0
18/11:00am 23.4 21.0 8.6 38 8.1 ESE 11 20 6 11 1021.5 1018.4 0.0
18/10:30am 23.3 20.1 8.4 38 8.1 ESE 15 26 8 14 1021.9 1018.8 0.0
18/10:00am 22.7 19.1 8.3 39 7.8 ESE 17 26 9 14 1022.1 1019.1 0.0
18/09:00am 20.2 15.2 8.2 46 6.4 ESE 24 35 13 19 1022.3 1019.3 0.0
18/08:30am 19.1 13.5 8.6 50 5.6 ESE 28 35 15 19 1022.5 1019.5 0.0
18/07:30am 16.0 10.1 9.0 63 3.7 ESE 30 41 16 22 1022.1 1019.1 0.0
18/07:00am 14.4 9.7 9.3 71 2.7 SE 24 32 13 17 1022.0 1018.9 0.0
18/06:00am 12.0 9.1 9.5 85 1.3 SE 15 19 8 10 1021.5 1018.4 0.0
18/05:30am 11.8 8.9 9.5 86 1.2 SE 15 19 8 10 1021.4 1018.3 0.0
18/05:00am 11.7 8.7 9.4 86 1.2 SE 15 19 8 10 1021.0 1017.9 0.0
18/04:30am 12.2 8.8 9.3 82 1.5 ESE 17 20 9 11 1020.5 1017.4 0.0
18/04:00am 12.5 9.2 9.4 81 1.6 ESE 17 20 9 11 1020.6 1017.6 0.0
18/03:30am 12.4 9.1 9.7 83 1.4 ESE 17 19 9 10 1020.3 1017.2 0.0
18/03:00am 12.8 9.5 9.6 81 1.7 ESE 17 19 9 10 1020.2 1017.1 0.0
18/02:30am 12.9 10.0 9.7 81 1.7 SE 15 17 8 9 1020.4 1017.3 0.0
18/02:00am 13.2 10.3 9.8 80 1.8 SE 15 17 8 9 1020.5 1017.4 0.0
18/01:30am 13.6 10.7 9.6 77 2.1 SE 15 17 8 9 1020.5 1017.4 0.0
18/01:00am 14.0 11.1 9.7 75 2.3 SE 15 17 8 9 1020.7 1017.7 0.0
18/12:30am 14.2 11.3 9.7 74 2.4 SE 15 19 8 10 1020.9 1017.8 0.0
18/12:00am 14.5 11.6 9.8 73 2.5 ESE 15 19 8 10 1021.0 1017.9 0.0
 
Date/Time
WST
Temp
°C
App
Temp
°C
Dew
Point
Rel
Hum
%
Delta-T
°C
Wind Press
QNH
hPa
Press
MSL
hPa
Rain
since 9 am
mm
Dir
 
Spd
km/h
Gust
km/h
Spd
kts
Gust
kts
17/11:30pm 15.0 11.8 9.8 71 2.8 SE 17 20 9 11 1021.0 1017.9 0.0
17/11:00pm 15.3 12.1 9.9 70 2.9 ESE 17 20 9 11 1021.2 1018.1 0.0
17/10:30pm 15.7 12.5 9.9 68 3.1 ESE 17 24 9 13 1021.4 1018.3 0.0
17/10:00pm 16.2 12.1 10.1 67 3.3 SE 22 32 12 17 1021.5 1018.4 0.0
17/09:30pm 16.4 13.3 10.3 67 3.3 ESE 17 22 9 12 1021.5 1018.4 0.0
17/09:00pm 16.8 13.7 10.2 65 3.6 SE 17 22 9 12 1021.4 1018.3 0.0
17/08:30pm 17.1 13.6 10.1 63 3.8 SE 19 24 10 13 1021.3 1018.2 0.0
17/07:30pm 17.8 13.0 10.3 61 4.1 SSE 26 35 14 19 1021.2 1018.1 0.0
17/07:00pm 18.2 14.4 11.0 63 4.0 SSE 22 33 12 18 1020.7 1017.7 0.0
17/06:30pm 18.9 13.9 10.8 59 4.5 S 28 39 15 21 1020.2 1017.1 0.0
17/06:00pm 19.7 15.0 10.7 56 5.0 S 26 39 14 21 1019.9 1016.8 0.0
17/05:30pm 20.7 17.2 10.1 50 5.9 S 19 28 10 15 1019.6 1016.5 0.0
17/05:00pm 21.5 17.0 10.0 48 6.4 S 24 32 13 17 1019.2 1016.1 0.0
17/04:30pm 22.5 18.9 9.7 44 7.1 S 19 26 10 14 1018.8 1015.7 0.0
17/04:00pm 22.7 18.8 9.5 43 7.3 S 20 26 11 14 1018.8 1015.7 0.0
17/03:30pm 23.4 20.2 10.1 43 7.5 S 17 26 9 14 1018.7 1015.6 0.0
17/03:00pm 22.7 18.9 9.8 44 7.2 S 20 28 11 15 1018.8 1015.7 0.0
17/02:30pm 22.5 19.7 11.3 49 6.4 SSE 17 28 9 15 1018.8 1015.7 0.0
17/02:00pm 22.7 19.6 11.6 49 6.4 SSE 19 28 10 15 1019.1 1015.9 0.0
17/01:30pm 22.1 18.9 11.9 52 5.9 SSE 20 30 11 16 1019.2 1016.1 0.0
17/01:00pm 21.7 18.2 12.2 54 5.5 SSE 22 32 12 17 1019.6 1016.5 0.0
17/12:30pm 21.9 18.8 12.2 54 5.6 SSE 20 26 11 14 1020.1 1017.0 0.0
17/12:00pm 20.8 17.8 12.7 59 4.7 SSE 20 32 11 17 1020.4 1017.3 0.0
17/11:30am 20.8 17.6 13.1 61 4.5 SSE 22 30 12 16 1021.1 1018.0 0.0
17/11:00am 20.0 16.9 13.5 66 3.8 SSE 22 30 12 16 1021.8 1018.7 0.0
17/10:30am 19.0 15.6 13.7 71 3.1 SSE 24 30 13 16 1022.2 1019.2 0.0
17/10:00am 18.0 14.7 13.9 77 2.4 SSE 24 32 13 17 1022.5 1019.5 0.0
17/09:30am 17.2 14.8 14.3 83 1.7 SSE 20 28 11 15 1023.0 1019.9 0.0
17/09:00am 17.1 13.9 14.2 83 1.7 SSE 24 33 13 18 1023.2 1020.1 0.0
17/08:30am 16.9 14.1 14.3 85 1.5 SSE 22 28 12 15 1023.1 1020.0 0.0
17/08:00am 16.5 13.3 14.3 87 1.3 SSE 24 33 13 18 1023.2 1020.1 0.0
17/07:30am 16.4 14.3 14.7 90 1.0 SSE 19 26 10 14 1023.1 1020.0 2.6
17/07:00am 15.6 13.5 14.6 94 0.6 SSE 19 26 10 14 1022.8 1019.7 2.6
17/06:48am 15.4 13.2 14.5 94 0.5 SSE 19 24 10 13 1022.8 1019.7 2.6
17/06:30am 15.1 12.0 14.6 97 0.3 SSE 24 35 13 19 1022.4 1019.4 -
17/06:00am 15.2 13.0 14.3 94 0.5 SSE 19 24 10 13 1022.3 1019.3 -
17/05:30am 15.0 12.2 14.3 96 0.4 SSE 22 30 12 16 1021.8 1018.7 -
17/05:00am 15.1 12.8 14.6 97 0.3 SSE 20 30 11 16 1021.6 1018.5 -
17/04:30am 15.2 12.5 14.7 97 0.3 SSE 22 30 12 16 1021.5 1018.4 -
17/04:00am 15.7 13.5 15.0 96 0.4 SSE 20 30 11 16 1021.3 1018.2 -
17/03:30am 16.0 13.8 15.0 94 0.6 SSE 20 30 11 16 1021.2 1018.1 -
17/03:00am 16.6 14.3 14.7 88 1.1 SSE 20 26 11 14 1021.1 1018.0 -
17/02:30am 16.7 13.9 14.3 86 1.4 SE 22 35 12 19 1021.0 1017.9 -
17/02:00am 16.6 14.5 15.1 91 0.9 SSE 20 30 11 16 1021.1 1018.0 -
17/01:30am 16.4 14.2 14.9 91 0.9 SSE 20 26 11 14 1021.1 1018.0 -
17/01:00am 16.2 14.0 15.0 93 0.7 SSE 20 26 11 14 1021.4 1018.3 -
17/12:30am 16.5 13.5 14.8 90 1.0 SSE 24 33 13 18 1021.7 1018.6 -
17/12:00am 16.4 13.5 15.1 92 0.8 SSE 24 32 13 17 1021.8 1018.7 -
 
Date/Time
WST
Temp
°C
App
Temp
°C
Dew
Point
Rel
Hum
%
Delta-T
°C
Wind Press
QNH
hPa
Press
MSL
hPa
Rain
since 9 am
mm
Dir
 
Spd
km/h
Gust
km/h
Spd
kts
Gust
kts
16/11:30pm 16.8 13.8 14.9 88 1.1 S 24 32 13 17 1021.8 1018.7 -
16/11:00pm 17.2 15.1 15.2 88 1.2 S 20 28 11 15 1022.1 1019.1 -
16/10:30pm 17.2 14.3 15.2 88 1.2 SSE 24 35 13 19 1022.3 1019.3 -
16/10:00pm 17.4 14.5 15.2 87 1.3 S 24 32 13 17 1022.7 1019.6 -
16/09:30pm 17.9 14.5 15.7 87 1.3 S 28 35 15 19 1022.8 1019.7 -
16/09:00pm 18.7 16.2 16.1 85 1.6 SSE 24 33 13 18 1022.7 1019.6 -
16/08:30pm 19.0 18.0 16.6 86 1.5 SSE 17 22 9 12 1022.7 1019.6 2.6
16/08:00pm 19.0 18.6 17.1 89 1.2 SSE 15 19 8 10 1022.8 1019.7 2.6
16/07:30pm 18.1 18.4 17.1 94 0.6 SSE 11 11 6 6 1022.3 1019.3 2.6
16/07:00pm 18.5 18.9 17.2 92 0.8 SE 11 13 6 7 1021.7 1018.6 2.6
16/06:30pm 19.0 19.0 17.2 89 1.1 SE 13 15 7 8 1021.3 1018.2 2.6
16/06:00pm 19.5 20.0 17.4 88 1.3 SSE 11 15 6 8 1021.1 1018.0 2.6
16/05:30pm 20.1 20.3 17.6 85 1.6 SE 13 15 7 8 1020.6 1017.6 -
16/05:00pm 20.3 20.4 17.4 83 1.8 SE 13 17 7 9 1020.4 1017.3 -
16/04:30pm 20.6 19.8 17.1 80 2.2 SSE 17 20 9 11 1020.5 1017.4 2.6
16/04:00pm 20.8 21.0 17.6 82 2.0 SSE 13 17 7 9 1020.4 1017.3 2.6
16/03:30pm 20.8 21.7 17.5 81 2.1 SSE 9 13 5 7 1020.5 1017.4 2.6
16/03:00pm 20.8 20.9 17.5 81 2.1 ESE 13 19 7 10 1019.7 1016.6 2.6
16/02:30pm 20.5 19.5 18.0 85 1.6 SSE 20 24 11 13 1019.3 1016.2 2.6
16/02:00pm 20.6 22.1 18.1 85 1.6 SE 7 11 4 6 1020.0 1016.9 2.6
16/01:30pm 20.3 21.7 18.6 90 1.1 SE 9 13 5 7 1020.1 1017.0 2.6
16/01:00pm 20.4 21.7 18.4 88 1.3 ESE 9 11 5 6 1020.5 1017.4 2.2
16/12:30pm 20.2 21.3 18.1 88 1.3 SSE 9 13 5 7 1021.0 1017.9 2.0
16/12:00pm 20.2 20.4 17.7 85 1.6 ESE 13 17 7 9 1020.7 1017.7 1.8
16/11:30am 20.0 19.9 17.8 87 1.4 E 15 20 8 11 1021.5 1018.4 1.6
16/11:00am 19.7 21.2 18.0 90 1.1 SE 7 9 4 5 1023.1 1020.0 1.4
16/10:30am 19.5 19.1 18.1 92 0.9 SSE 17 20 9 11 1023.2 1020.1 1.0
16/10:00am 19.2 19.1 17.8 92 0.9 SE 15 19 8 10 1024.1 1021.1 0.8
16/09:30am 18.9 18.8 17.8 93 0.7 SE 15 20 8 11 1024.5 1021.4 0.8
16/09:00am 18.5 17.8 17.4 93 0.7 SE 17 22 9 12 1024.8 1021.7 0.4
16/08:30am 18.4 18.0 17.1 92 0.8 SSE 15 26 8 14 1025.1 1022.0 0.2
16/08:00am 18.2 16.8 17.1 93 0.7 S 20 28 11 15 1024.5 1021.4 0.2
16/07:30am 18.3 17.8 17.0 92 0.8 S 15 20 8 11 1024.9 1021.8 0.6
16/07:00am 18.3 17.8 17.0 92 0.8 SSE 15 22 8 12 1023.9 1020.9 -
16/06:30am 18.5 17.2 16.7 89 1.1 SSE 19 32 10 17 1023.6 1020.6 -
16/06:00am 18.6 16.3 16.6 88 1.2 S 24 35 13 19 1022.9 1019.8 -
16/05:30am 19.0 17.5 16.2 84 1.7 S 19 28 10 15 1023.3 1020.2 0.6
16/05:00am 19.1 17.9 16.2 83 1.8 SSW 17 26 9 14 1023.0 1019.9 0.6
16/04:30am 19.4 17.6 16.1 81 2.0 SW 20 28 11 15 1022.7 1019.6 0.6
16/04:00am 19.6 16.8 16.3 81 2.0 SSW 26 35 14 19 1021.3 1018.2 -
16/03:30am 19.9 17.9 16.5 81 2.1 SSW 22 32 12 17 1020.9 1017.8 -
16/03:00am 20.0 17.4 15.9 77 2.5 SSW 24 37 13 20 1020.6 1017.6 -
16/02:32am 21.4 18.2 14.2 63 4.3 SSW 24 46 13 25 1021.4 1018.3 -
16/02:30am 21.5 18.9 13.9 62 4.5 S 20 39 11 21 1021.3 1018.2 -
16/02:28am 21.5 18.9 13.9 62 4.5 SSE 20 33 11 18 1020.7 1017.7 -
16/02:00am 21.3 16.9 14.1 63 4.3 ESE 30 39 16 21 1018.4 1015.3 -
16/01:30am 21.4 17.3 13.8 62 4.5 SE 28 39 15 21 1018.2 1015.1 -
16/01:00am 21.6 17.1 13.7 60 4.7 SE 30 43 16 23 1018.3 1015.2 -
16/12:30am 21.8 18.1 13.9 61 4.7 SE 26 35 14 19 1018.6 1015.5 -
16/12:00am 22.3 18.8 13.5 57 5.2 SSE 24 33 13 18 1019.3 1016.2 -
 
Date/Time
WST
Temp
°C
App
Temp
°C
Dew
Point
Rel
Hum
%
Delta-T
°C
Wind Press
QNH
hPa
Press
MSL
hPa
Rain
since 9 am
mm
Dir
 
Spd
km/h
Gust
km/h
Spd
kts
Gust
kts
15/11:30pm 22.8 19.7 13.4 55 5.6 SSE 22 32 12 17 1019.6 1016.5 -
15/11:00pm 23.2 20.1 13.4 54 5.8 SSE 22 30 12 16 1019.8 1016.7 -
15/10:30pm 23.8 20.4 13.6 52 6.1 SE 24 30 13 16 1019.7 1016.6 -
15/10:00pm 24.9 21.9 12.5 46 7.3 SE 20 28 11 15 1019.8 1016.7 -
15/09:30pm 25.1 22.1 12.6 45 7.4 SE 20 28 11 15 1019.7 1016.6 -
15/09:00pm 25.5 22.4 12.3 43 7.8 SE 20 32 11 17 1019.6 1016.5 -
15/08:30pm 25.6 23.2 12.8 45 7.6 SE 17 24 9 13 1019.4 1016.3 0.6
15/07:30pm 25.9 23.3 13.8 47 7.3 SSE 20 30 11 16 1018.9 1015.8 0.6
15/07:00pm 26.5 23.3 14.2 46 7.5 S 24 33 13 18 1018.6 1015.5 0.6
15/06:56pm 26.9 24.3 13.9 44 7.9 S 20 33 11 18 1018.5 1015.4 -
15/06:30pm 28.3 27.4 11.5 35 9.9 SSE 7 11 4 6 1018.1 1015.0 0.6
15/06:00pm 29.0 27.4 10.1 30 10.9 S 9 11 5 6 1017.9 1014.8 0.6
15/05:30pm 31.1 30.7 11.2 29 11.8 NW 4 6 2 3 1017.5 1014.3 -
15/05:00pm 31.9 30.4 9.2 24 13.1 N 7 9 4 5 1017.1 1014.0 -
15/04:30pm 32.5 30.0 8.3 22 13.8 N 11 17 6 9 1016.9 1013.8 0.6
15/04:00pm 32.5 31.3 9.7 24 13.3 E 6 11 3 6 1016.7 1013.6 0.6
15/03:30pm 33.3 30.8 8.4 21 14.3 NNE 11 19 6 10 1016.6 1013.5 0.6
15/03:00pm 33.9 31.9 8.6 21 14.6 ESE 9 15 5 8 1016.6 1013.5 0.6
15/02:30pm 33.1 31.9 9.7 23 13.7 NNE 6 9 3 5 1016.7 1013.6 0.6
15/02:00pm 32.7 30.8 9.0 23 13.7 NNW 9 19 5 10 1016.9 1013.8 0.6
15/01:30pm 32.2 31.4 9.7 25 13.1 SE 4 9 2 5 1017.4 1014.2 0.6
15/01:00pm 32.3 29.9 8.5 23 13.6 NE 11 19 6 10 1017.7 1014.6 -
15/12:30pm 31.3 27.9 7.6 22 13.3 E 15 24 8 13 1018.1 1015.0 -
15/12:00pm 30.6 26.9 8.0 24 12.7 E 17 24 9 13 1018.5 1015.4 -
15/11:30am 30.3 26.5 8.9 26 12.2 E 19 28 10 15 1018.8 1015.7 -

Other Formats:

Comma delimited format used in spreadsheet applications
http://www.bom.gov.au/fwo/IDW60801/IDW60801.94461.axf

JavaScript Object Notation format (JSON) in row-major order
http://www.bom.gov.au/fwo/IDW60801/IDW60801.94461.json